createdAt,value
2018-10-18T00:01:40.701Z,100304.00
2018-10-18T00:04:09.979Z,100310.00
2018-10-18T00:06:39.236Z,100305.00
2018-10-18T00:09:10.902Z,100307.00
2018-10-18T00:11:40.276Z,100307.00
2018-10-18T00:14:10.998Z,100312.00
2018-10-18T00:16:40.256Z,100316.00
2018-10-18T00:19:09.640Z,100312.00
2018-10-18T00:21:38.992Z,100312.00
2018-10-18T00:24:08.296Z,100314.00
2018-10-18T00:26:37.628Z,100320.00
2018-10-18T00:29:07.043Z,100319.00
2018-10-18T00:31:36.468Z,100319.00
2018-10-18T00:34:05.880Z,100316.00
2018-10-18T00:36:35.331Z,100320.00
2018-10-18T00:39:07.208Z,100317.00
2018-10-18T00:41:36.663Z,100309.00
2018-10-18T00:44:07.550Z,100310.00
2018-10-18T00:46:36.750Z,100311.00
2018-10-18T00:49:07.475Z,100310.00
2018-10-18T00:51:36.750Z,100303.00
2018-10-18T00:54:07.076Z,100309.00
2018-10-18T00:56:36.256Z,100308.00
2018-10-18T00:59:05.581Z,100305.00
2018-10-18T01:01:34.856Z,100307.00
2018-10-18T01:04:04.123Z,100309.00
2018-10-18T01:06:33.389Z,100309.00
2018-10-18T01:09:02.690Z,100307.00
2018-10-18T01:11:31.953Z,100306.00
2018-10-18T01:14:01.240Z,100306.00
2018-10-18T01:16:30.510Z,100308.00
2018-10-18T01:18:59.861Z,100305.00
2018-10-18T01:21:29.111Z,100301.00
2018-10-18T01:23:58.385Z,100298.00
2018-10-18T01:26:27.627Z,100300.00
2018-10-18T01:28:56.875Z,100301.00
2018-10-18T01:31:26.142Z,100299.00
2018-10-18T01:33:55.400Z,100297.00
2018-10-18T01:36:24.924Z,100298.00
2018-10-18T01:38:54.201Z,100299.00
2018-10-18T01:41:23.503Z,100293.00
2018-10-18T01:43:52.803Z,100298.00
2018-10-18T01:46:22.046Z,100293.00
2018-10-18T01:48:51.317Z,100296.00
2018-10-18T01:51:20.569Z,100298.00
2018-10-18T01:53:49.815Z,100295.00
2018-10-18T01:56:19.083Z,100291.00
2018-10-18T01:58:48.354Z,100290.00
2018-10-18T02:01:17.740Z,100288.00
2018-10-18T02:03:47.028Z,100292.00
2018-10-18T02:06:16.372Z,100290.00
2018-10-18T02:08:45.653Z,100287.00
2018-10-18T02:11:14.922Z,100287.00
2018-10-18T02:13:44.237Z,100288.00
2018-10-18T02:16:13.470Z,100287.00
2018-10-18T02:18:42.723Z,100293.00
2018-10-18T02:21:11.992Z,100288.00
2018-10-18T02:23:41.256Z,100287.00
2018-10-18T02:26:10.527Z,100289.00
2018-10-18T02:28:39.797Z,100289.00
2018-10-18T02:31:09.057Z,100288.00
2018-10-18T02:33:38.322Z,100285.00
2018-10-18T02:36:07.676Z,100285.00
2018-10-18T02:38:36.869Z,100285.00
2018-10-18T02:41:06.228Z,100284.00
2018-10-18T02:43:35.485Z,100284.00
2018-10-18T02:46:04.747Z,100288.00
2018-10-18T02:48:34.004Z,100282.00
2018-10-18T02:51:03.382Z,100287.00
2018-10-18T02:53:32.635Z,100288.00
2018-10-18T02:56:01.885Z,100283.00
2018-10-18T02:58:31.139Z,100283.00
2018-10-18T03:01:00.439Z,100285.00
2018-10-18T03:03:29.673Z,100288.00
2018-10-18T03:05:59.132Z,100286.00
2018-10-18T03:08:28.417Z,100287.00
2018-10-18T03:10:57.691Z,100287.00
2018-10-18T03:13:26.961Z,100292.00
2018-10-18T03:15:56.287Z,100289.00
2018-10-18T03:18:25.487Z,100286.00
2018-10-18T03:20:54.736Z,100290.00
2018-10-18T03:23:24.007Z,100293.00
2018-10-18T03:25:53.249Z,100292.00
2018-10-18T03:28:22.501Z,100293.00
2018-10-18T03:30:51.758Z,100297.00
2018-10-18T03:33:20.996Z,100300.00
2018-10-18T03:35:50.268Z,100304.00
2018-10-18T03:38:19.525Z,100303.00
2018-10-18T03:40:48.798Z,100302.00
2018-10-18T03:43:18.051Z,100300.00
2018-10-18T03:45:47.382Z,100308.00
2018-10-18T03:48:16.696Z,100307.00
2018-10-18T03:50:45.928Z,100311.00
2018-10-18T03:53:15.212Z,100309.00
2018-10-18T03:55:44.506Z,100307.00
2018-10-18T03:58:13.785Z,100305.00
2018-10-18T04:00:43.271Z,100307.00
2018-10-18T04:03:12.557Z,100307.00
2018-10-18T04:05:41.813Z,100305.00
2018-10-18T04:08:11.107Z,100301.00
2018-10-18T04:10:40.352Z,100307.00
2018-10-18T04:13:09.680Z,100309.00
2018-10-18T04:15:38.883Z,100313.00
2018-10-18T04:18:08.304Z,100310.00
2018-10-18T04:20:37.470Z,100308.00
2018-10-18T04:23:06.740Z,100316.00
2018-10-18T04:25:36.075Z,100310.00
2018-10-18T04:28:05.584Z,100312.00
2018-10-18T04:30:34.915Z,100314.00
2018-10-18T04:33:04.333Z,100314.00
2018-10-18T04:35:33.588Z,100316.00
2018-10-18T04:38:02.868Z,100318.00
2018-10-18T04:40:32.127Z,100324.00
2018-10-18T04:43:01.476Z,100326.00
2018-10-18T04:45:30.741Z,100331.00
2018-10-18T04:48:00.193Z,100328.00
2018-10-18T04:50:29.324Z,100328.00
2018-10-18T04:52:58.637Z,100333.00
2018-10-18T04:55:28.058Z,100331.00
2018-10-18T04:57:57.405Z,100335.00
2018-10-18T05:00:26.687Z,100334.00
2018-10-18T05:02:55.975Z,100332.00
2018-10-18T05:05:42.221Z,100335.00
2018-10-18T05:08:11.522Z,100335.00
2018-10-18T05:10:40.848Z,100339.00
2018-10-18T05:13:10.135Z,100342.00
2018-10-18T05:15:39.414Z,100341.00
2018-10-18T05:18:08.864Z,100342.00
2018-10-18T05:20:38.143Z,100341.00
2018-10-18T05:23:07.751Z,100343.00
2018-10-18T05:25:37.197Z,100347.00
2018-10-18T05:28:06.691Z,100349.00
2018-10-18T05:30:35.972Z,100351.00
2018-10-18T05:33:05.492Z,100351.00
2018-10-18T05:35:34.751Z,100351.00
2018-10-18T05:38:04.029Z,100360.00
2018-10-18T05:40:33.291Z,100359.00
2018-10-18T05:43:02.823Z,100360.00
2018-10-18T05:45:32.133Z,100368.00
2018-10-18T05:48:01.430Z,100368.00
2018-10-18T05:50:30.709Z,100373.00
2018-10-18T05:53:00.039Z,100379.00
2018-10-18T05:55:29.288Z,100381.00
2018-10-18T05:57:58.601Z,100386.00
2018-10-18T06:00:27.852Z,100390.00
2018-10-18T06:02:57.106Z,100397.00
2018-10-18T06:05:26.346Z,100401.00
2018-10-18T06:07:55.603Z,100407.00
2018-10-18T06:10:41.953Z,100409.00
2018-10-18T06:13:11.329Z,100410.00
2018-10-18T06:15:40.608Z,100413.00
2018-10-18T06:18:09.889Z,100417.00
2018-10-18T06:20:39.148Z,100416.00
2018-10-18T06:23:08.453Z,100417.00
2018-10-18T06:25:37.671Z,100416.00
2018-10-18T06:28:06.931Z,100423.00
2018-10-18T06:30:36.233Z,100420.00
2018-10-18T06:33:05.518Z,100422.00
2018-10-18T06:35:34.790Z,100430.00
2018-10-18T06:38:04.059Z,100427.00
2018-10-18T06:40:33.321Z,100436.00
2018-10-18T06:43:02.714Z,100442.00
2018-10-18T06:45:31.847Z,100445.00
2018-10-18T06:48:01.190Z,100448.00
2018-10-18T06:50:30.430Z,100449.00
2018-10-18T06:52:59.720Z,100456.00
2018-10-18T06:55:28.998Z,100452.00
2018-10-18T06:57:58.313Z,100452.00
2018-10-18T07:00:27.651Z,100454.00
2018-10-18T07:02:56.898Z,100453.00
2018-10-18T07:05:26.135Z,100452.00
2018-10-18T07:07:55.408Z,100454.00
2018-10-18T07:10:24.645Z,100457.00
2018-10-18T07:12:53.906Z,100455.00
2018-10-18T07:15:23.169Z,100458.00
2018-10-18T07:17:52.436Z,100462.00
2018-10-18T07:20:21.719Z,100462.00
2018-10-18T07:22:51.046Z,100465.00
2018-10-18T07:25:20.431Z,100460.00
2018-10-18T07:27:49.661Z,100460.00
2018-10-18T07:30:19.016Z,100456.00
2018-10-18T07:32:48.219Z,100458.00
2018-10-18T07:35:17.490Z,100458.00
2018-10-18T07:37:46.749Z,100458.00
2018-10-18T07:40:16.669Z,100465.00
2018-10-18T07:42:45.922Z,100464.00
2018-10-18T07:45:15.655Z,100464.00
2018-10-18T07:47:45.581Z,100465.00
2018-10-18T07:50:14.847Z,100461.00
2018-10-18T07:52:44.119Z,100465.00
2018-10-18T07:55:13.391Z,100465.00
2018-10-18T07:57:42.649Z,100470.00
2018-10-18T08:00:13.901Z,100473.00
2018-10-18T08:02:43.746Z,100472.00
2018-10-18T08:05:13.372Z,100474.00
2018-10-18T08:07:42.669Z,100468.00
2018-10-18T08:10:19.154Z,100466.00
2018-10-18T08:12:48.448Z,100465.00
2018-10-18T08:15:18.150Z,100460.00
2018-10-18T08:17:47.436Z,100460.00
2018-10-18T08:20:16.729Z,100463.00
2018-10-18T08:22:46.042Z,100461.00
2018-10-18T08:25:15.385Z,100461.00
2018-10-18T08:27:44.679Z,100463.00
2018-10-18T08:30:14.452Z,100463.00
2018-10-18T08:32:43.709Z,100465.00
2018-10-18T08:35:13.382Z,100461.00
2018-10-18T08:37:42.720Z,100462.00
2018-10-18T08:40:11.946Z,100464.00
2018-10-18T08:42:41.203Z,100462.00
2018-10-18T08:45:11.723Z,100465.00
2018-10-18T08:47:41.038Z,100470.00
2018-10-18T08:50:11.684Z,100462.00
2018-10-18T08:52:40.933Z,100465.00
2018-10-18T08:55:12.694Z,100461.00
2018-10-18T08:57:42.685Z,100459.00
2018-10-18T09:00:12.811Z,100457.00
2018-10-18T09:02:42.920Z,100458.00
2018-10-18T09:05:12.300Z,100452.00
2018-10-18T09:07:41.550Z,100451.00
2018-10-18T09:10:10.811Z,100451.00
2018-10-18T09:12:40.045Z,100456.00
2018-10-18T09:15:09.954Z,100456.00
2018-10-18T09:17:39.429Z,100454.00
2018-10-18T09:20:08.975Z,100450.00
2018-10-18T09:22:38.291Z,100447.00
2018-10-18T09:25:09.133Z,100443.00
2018-10-18T09:27:38.450Z,100446.00
2018-10-18T09:30:10.083Z,100440.00
2018-10-18T09:32:39.325Z,100444.00
2018-10-18T09:35:08.637Z,100440.00
2018-10-18T09:37:38.046Z,100442.00
2018-10-18T09:40:09.655Z,100441.00
2018-10-18T09:42:39.068Z,100436.00
2018-10-18T09:45:10.701Z,100438.00
2018-10-18T09:47:40.012Z,100434.00
2018-10-18T09:50:11.772Z,100436.00
2018-10-18T09:52:41.165Z,100442.00
2018-10-18T09:55:12.051Z,100438.00
2018-10-18T09:57:41.533Z,100442.00
2018-10-18T10:00:16.111Z,100439.00
2018-10-18T10:02:49.886Z,100442.00
2018-10-18T10:05:20.329Z,100437.00
2018-10-18T10:07:49.566Z,100434.00
2018-10-18T10:10:18.934Z,100434.00
2018-10-18T10:12:48.221Z,100433.00
2018-10-18T10:15:17.555Z,100432.00
2018-10-18T10:17:46.884Z,100431.00
2018-10-18T10:20:16.132Z,100433.00
2018-10-18T10:22:45.434Z,100429.00
2018-10-18T10:25:14.755Z,100421.00
2018-10-18T10:27:44.087Z,100425.00
2018-10-18T10:30:13.414Z,100419.00
2018-10-18T10:32:42.770Z,100420.00
2018-10-18T10:35:12.113Z,100418.00
2018-10-18T10:37:41.361Z,100415.00
2018-10-18T10:40:11.285Z,100421.00
2018-10-18T10:42:41.717Z,100420.00
2018-10-18T10:45:11.965Z,100425.00
2018-10-18T10:47:41.234Z,100422.00
2018-10-18T10:50:10.851Z,100410.00
2018-10-18T10:52:40.434Z,100406.00
2018-10-18T10:55:10.828Z,100414.00
2018-10-18T10:57:40.150Z,100410.00
2018-10-18T11:00:09.451Z,100413.00
2018-10-18T11:02:38.709Z,100406.00
2018-10-18T11:05:07.975Z,100403.00
2018-10-18T11:07:37.262Z,100402.00
2018-10-18T11:10:06.798Z,100401.00
2018-10-18T11:12:36.103Z,100401.00
2018-10-18T11:15:05.720Z,100400.00
2018-10-18T11:17:35.003Z,100393.00
2018-10-18T11:20:04.343Z,100394.00
2018-10-18T11:22:33.678Z,100389.00
2018-10-18T11:25:02.935Z,100383.00
2018-10-18T11:27:32.280Z,100381.00
2018-10-18T11:30:01.577Z,100380.00
2018-10-18T11:32:30.864Z,100377.00
2018-10-18T11:35:00.169Z,100376.00
2018-10-18T11:37:29.501Z,100381.00
2018-10-18T11:39:58.820Z,100378.00
2018-10-18T11:42:28.161Z,100376.00
2018-10-18T11:44:57.436Z,100372.00
2018-10-18T11:47:26.761Z,100369.00
2018-10-18T11:49:56.100Z,100367.00
2018-10-18T11:52:25.421Z,100366.00
2018-10-18T11:54:54.705Z,100361.00
2018-10-18T11:57:24.023Z,100353.00
2018-10-18T11:59:53.323Z,100352.00
2018-10-18T12:02:22.645Z,100357.00
2018-10-18T12:04:51.969Z,100356.00
2018-10-18T12:07:21.273Z,100355.00
2018-10-18T12:09:50.552Z,100352.00
2018-10-18T12:12:19.876Z,100348.00
2018-10-18T12:14:49.225Z,100344.00
2018-10-18T12:17:18.515Z,100343.00
2018-10-18T12:19:47.837Z,100343.00
2018-10-18T12:22:17.167Z,100340.00
2018-10-18T12:24:46.472Z,100342.00
2018-10-18T12:27:15.801Z,100339.00
2018-10-18T12:29:45.167Z,100345.00
2018-10-18T12:32:14.544Z,100342.00
2018-10-18T12:34:43.878Z,100345.00
2018-10-18T12:37:13.243Z,100348.00
2018-10-18T12:39:42.666Z,100344.00
2018-10-18T12:42:11.910Z,100344.00
2018-10-18T12:44:41.653Z,100340.00
2018-10-18T12:47:12.002Z,100342.00
2018-10-18T12:49:42.343Z,100341.00
2018-10-18T12:52:12.778Z,100344.00
2018-10-18T12:54:42.243Z,100343.00
2018-10-18T12:57:12.721Z,100342.00
2018-10-18T12:59:42.025Z,100341.00
2018-10-18T13:02:11.467Z,100343.00
2018-10-18T13:04:40.875Z,100343.00
2018-10-18T13:07:10.295Z,100346.00
2018-10-18T13:09:39.725Z,100341.00
2018-10-18T13:12:09.102Z,100347.00
2018-10-18T13:14:38.386Z,100353.00
2018-10-18T13:17:07.827Z,100350.00
2018-10-18T13:19:37.151Z,100351.00
2018-10-18T13:22:06.595Z,100352.00
2018-10-18T13:24:36.013Z,100353.00
2018-10-18T13:27:05.411Z,100354.00
2018-10-18T13:29:34.798Z,100350.00
2018-10-18T13:32:04.110Z,100345.00
2018-10-18T13:34:33.821Z,100352.00
2018-10-18T13:37:03.121Z,100351.00
2018-10-18T13:39:32.427Z,100350.00
2018-10-18T13:42:01.832Z,100351.00
2018-10-18T13:44:31.097Z,100352.00
2018-10-18T13:47:00.389Z,100351.00
2018-10-18T13:49:29.693Z,100346.00
2018-10-18T13:51:58.965Z,100348.00
2018-10-18T13:54:28.278Z,100350.00
2018-10-18T13:56:57.644Z,100356.00
2018-10-18T13:59:44.114Z,100350.00
2018-10-18T14:02:13.599Z,100353.00
2018-10-18T14:04:42.690Z,100356.00
2018-10-18T14:07:12.048Z,100346.00
2018-10-18T14:09:41.364Z,100348.00
2018-10-18T14:12:10.686Z,100348.00
2018-10-18T14:14:39.983Z,100348.00
2018-10-18T14:17:09.356Z,100353.00
2018-10-18T14:19:38.871Z,100350.00
2018-10-18T14:22:08.159Z,100354.00
2018-10-18T14:24:37.588Z,100348.00
2018-10-18T14:27:06.943Z,100356.00
2018-10-18T14:29:36.281Z,100354.00
2018-10-18T14:32:06.023Z,100357.00
2018-10-18T14:34:35.340Z,100352.00
2018-10-18T14:37:04.643Z,100358.00
2018-10-18T14:39:33.951Z,100359.00
2018-10-18T14:42:03.233Z,100355.00
2018-10-18T14:44:32.632Z,100354.00
2018-10-18T14:47:01.872Z,100357.00
2018-10-18T14:49:31.212Z,100354.00
2018-10-18T14:52:00.571Z,100366.00
2018-10-18T14:54:29.892Z,100359.00
2018-10-18T14:56:59.213Z,100363.00
2018-10-18T14:59:28.521Z,100365.00
2018-10-18T15:01:57.894Z,100368.00
2018-10-18T15:04:27.228Z,100363.00
2018-10-18T15:06:56.460Z,100367.00
2018-10-18T15:09:25.745Z,100362.00
2018-10-18T15:11:55.055Z,100367.00
2018-10-18T15:14:24.348Z,100366.00
2018-10-18T15:16:53.661Z,100369.00
2018-10-18T15:19:22.969Z,100369.00
2018-10-18T15:21:52.302Z,100371.00
2018-10-18T15:24:21.603Z,100370.00
2018-10-18T15:26:51.063Z,100376.00
2018-10-18T15:29:20.372Z,100375.00
2018-10-18T15:31:49.659Z,100379.00
2018-10-18T15:34:19.000Z,100382.00
2018-10-18T15:36:48.282Z,100381.00
2018-10-18T15:39:17.702Z,100387.00
2018-10-18T15:41:46.881Z,100382.00
2018-10-18T15:44:16.242Z,100386.00
2018-10-18T15:46:45.498Z,100392.00
2018-10-18T15:49:14.803Z,100396.00
2018-10-18T15:51:44.108Z,100395.00
2018-10-18T15:54:13.478Z,100402.00
2018-10-18T15:56:42.706Z,100401.00
2018-10-18T15:59:12.059Z,100407.00
2018-10-18T16:01:41.366Z,100407.00
2018-10-18T16:04:10.648Z,100408.00
2018-10-18T16:06:39.977Z,100410.00
2018-10-18T16:09:11.715Z,100414.00
2018-10-18T16:11:41.072Z,100417.00
2018-10-18T16:14:10.423Z,100413.00
2018-10-18T16:16:39.699Z,100419.00
2018-10-18T16:19:09.013Z,100421.00
2018-10-18T16:21:38.309Z,100421.00
2018-10-18T16:24:07.657Z,100425.00
2018-10-18T16:26:36.929Z,100428.00
2018-10-18T16:29:06.466Z,100429.00
2018-10-18T16:31:35.780Z,100431.00
2018-10-18T16:34:05.365Z,100436.00
2018-10-18T16:36:34.796Z,100431.00
2018-10-18T16:39:06.152Z,100435.00
2018-10-18T16:41:35.583Z,100442.00
2018-10-18T16:44:04.837Z,100453.00
2018-10-18T16:46:34.152Z,100453.00
2018-10-18T16:49:03.496Z,100450.00
2018-10-18T16:51:32.892Z,100454.00
2018-10-18T16:54:02.551Z,100448.00
2018-10-18T16:56:31.835Z,100457.00
2018-10-18T16:59:01.138Z,100459.00
2018-10-18T17:01:30.497Z,100461.00
2018-10-18T17:03:59.839Z,100464.00
2018-10-18T17:06:29.188Z,100465.00
2018-10-18T17:08:58.452Z,100470.00
2018-10-18T17:11:27.861Z,100469.00
2018-10-18T17:13:57.126Z,100478.00
2018-10-18T17:16:26.436Z,100473.00
2018-10-18T17:18:55.712Z,100478.00
2018-10-18T17:21:25.043Z,100480.00
2018-10-18T17:23:54.395Z,100485.00
2018-10-18T17:26:23.709Z,100485.00
2018-10-18T17:28:53.079Z,100489.00
2018-10-18T17:31:22.422Z,100486.00
2018-10-18T17:33:51.741Z,100484.00
2018-10-18T17:36:21.105Z,100482.00
2018-10-18T17:38:50.473Z,100480.00
2018-10-18T17:41:19.783Z,100484.00
2018-10-18T17:43:49.109Z,100484.00
2018-10-18T17:46:18.544Z,100488.00
2018-10-18T17:48:47.756Z,100487.00
2018-10-18T17:51:17.065Z,100480.00
2018-10-18T17:53:46.373Z,100484.00
2018-10-18T17:56:15.773Z,100485.00
2018-10-18T17:58:45.020Z,100485.00
2018-10-18T18:01:14.368Z,100486.00
2018-10-18T18:03:43.709Z,100496.00
2018-10-18T18:06:13.245Z,100498.00
2018-10-18T18:08:42.380Z,100500.00
2018-10-18T18:11:11.702Z,100504.00
2018-10-18T18:13:41.019Z,100502.00
2018-10-18T18:16:10.362Z,100504.00
2018-10-18T18:18:39.674Z,100502.00
2018-10-18T18:21:09.029Z,100507.00
2018-10-18T18:23:38.386Z,100508.00
2018-10-18T18:26:07.711Z,100507.00
2018-10-18T18:28:37.037Z,100507.00
2018-10-18T18:31:06.411Z,100506.00
2018-10-18T18:33:35.732Z,100506.00
2018-10-18T18:36:05.246Z,100505.00
2018-10-18T18:38:34.543Z,100508.00
2018-10-18T18:41:03.903Z,100507.00
2018-10-18T18:43:33.342Z,100506.00
2018-10-18T18:46:02.643Z,100514.00
2018-10-18T18:48:31.969Z,100517.00
2018-10-18T18:51:01.316Z,100511.00
2018-10-18T18:53:30.679Z,100520.00
2018-10-18T18:55:59.922Z,100519.00
2018-10-18T18:58:29.219Z,100517.00
2018-10-18T19:00:58.521Z,100522.00
2018-10-18T19:03:27.805Z,100524.00
2018-10-18T19:05:57.128Z,100536.00
2018-10-18T19:08:26.577Z,100535.00
2018-10-18T19:10:55.878Z,100535.00
2018-10-18T19:13:25.187Z,100531.00
2018-10-18T19:15:54.507Z,100526.00
2018-10-18T19:18:23.814Z,100530.00
2018-10-18T19:20:53.116Z,100532.00
2018-10-18T19:23:22.491Z,100532.00
2018-10-18T19:25:51.757Z,100534.00
2018-10-18T19:28:21.062Z,100533.00
2018-10-18T19:30:50.442Z,100531.00
2018-10-18T19:33:19.743Z,100536.00
2018-10-18T19:35:49.061Z,100540.00
2018-10-18T19:38:18.387Z,100538.00
2018-10-18T19:40:47.688Z,100541.00
2018-10-18T19:43:16.982Z,100542.00
2018-10-18T19:45:47.283Z,100543.00
2018-10-18T19:48:16.585Z,100547.00
2018-10-18T19:50:45.883Z,100549.00
2018-10-18T19:53:15.192Z,100553.00
2018-10-18T19:55:44.465Z,100561.00
2018-10-18T19:58:13.831Z,100556.00
2018-10-18T20:00:43.192Z,100561.00
2018-10-18T20:03:12.478Z,100554.00
2018-10-18T20:05:41.786Z,100566.00
2018-10-18T20:08:11.089Z,100561.00
2018-10-18T20:10:40.402Z,100569.00
2018-10-18T20:13:09.729Z,100568.00
2018-10-18T20:15:39.050Z,100569.00
2018-10-18T20:18:08.455Z,100570.00
2018-10-18T20:20:37.725Z,100571.00
2018-10-18T20:23:07.018Z,100578.00
2018-10-18T20:25:36.458Z,100578.00
2018-10-18T20:28:06.066Z,100584.00
2018-10-18T20:30:35.423Z,100581.00
2018-10-18T20:33:05.007Z,100582.00
2018-10-18T20:35:34.353Z,100589.00
2018-10-18T20:38:03.647Z,100591.00
2018-10-18T20:40:32.962Z,100599.00
2018-10-18T20:43:02.373Z,100598.00
2018-10-18T20:45:34.345Z,100597.00
2018-10-18T20:48:03.903Z,100599.00
2018-10-18T20:50:33.068Z,100599.00
2018-10-18T20:53:02.476Z,100601.00
2018-10-18T20:55:31.727Z,100600.00
2018-10-18T20:58:01.041Z,100606.00
2018-10-18T21:00:30.380Z,100599.00
2018-10-18T21:02:59.705Z,100603.00
2018-10-18T21:05:29.021Z,100600.00
2018-10-18T21:07:58.344Z,100604.00
2018-10-18T21:10:27.673Z,100604.00
2018-10-18T21:12:57.058Z,100605.00
2018-10-18T21:15:26.328Z,100605.00
2018-10-18T21:17:55.622Z,100603.00
2018-10-18T21:20:24.922Z,100604.00
2018-10-18T21:22:54.251Z,100599.00
2018-10-18T21:25:23.673Z,100597.00
2018-10-18T21:27:53.045Z,100593.00
2018-10-18T21:30:22.317Z,100590.00
2018-10-18T21:32:51.638Z,100589.00
2018-10-18T21:35:20.940Z,100588.00
2018-10-18T21:37:50.254Z,100587.00
2018-10-18T21:40:19.560Z,100586.00
2018-10-18T21:42:48.871Z,100593.00
2018-10-18T21:45:18.572Z,100589.00
2018-10-18T21:47:47.938Z,100595.00
2018-10-18T21:50:17.323Z,100597.00
2018-10-18T21:52:46.646Z,100608.00
2018-10-18T21:55:15.956Z,100610.00
2018-10-18T21:57:45.242Z,100614.00
2018-10-18T22:00:16.123Z,100619.00
2018-10-18T22:02:46.259Z,100613.00
2018-10-18T22:05:16.559Z,100614.00
2018-10-18T22:07:45.823Z,100612.00
2018-10-18T22:10:15.126Z,100610.00
2018-10-18T22:12:44.423Z,100610.00
2018-10-18T22:15:13.803Z,100603.00
2018-10-18T22:17:43.102Z,100603.00
2018-10-18T22:20:12.419Z,100600.00
2018-10-18T22:22:41.717Z,100604.00
2018-10-18T22:25:11.031Z,100601.00
2018-10-18T22:27:40.337Z,100603.00
2018-10-18T22:30:09.669Z,100606.00
2018-10-18T22:32:38.982Z,100609.00
2018-10-18T22:35:08.305Z,100606.00
2018-10-18T22:37:37.654Z,100609.00
2018-10-18T22:40:08.108Z,100604.00
2018-10-18T22:42:37.437Z,100604.00
2018-10-18T22:45:08.213Z,100610.00
2018-10-18T22:47:37.613Z,100604.00
2018-10-18T22:50:06.938Z,100610.00
2018-10-18T22:52:36.271Z,100608.00
2018-10-18T22:55:06.185Z,100608.00
2018-10-18T22:57:35.511Z,100604.00
2018-10-18T23:00:06.021Z,100606.00
2018-10-18T23:02:35.344Z,100605.00
2018-10-18T23:05:04.840Z,100603.00
2018-10-18T23:07:34.129Z,100602.00
2018-10-18T23:10:03.531Z,100605.00
2018-10-18T23:12:32.827Z,100602.00
2018-10-18T23:15:02.434Z,100605.00
2018-10-18T23:17:31.755Z,100611.00
2018-10-18T23:20:01.068Z,100611.00
2018-10-18T23:22:30.378Z,100604.00
2018-10-18T23:24:59.651Z,100607.00
2018-10-18T23:27:31.480Z,100602.00
2018-10-18T23:30:00.774Z,100602.00
2018-10-18T23:32:30.091Z,100603.00
2018-10-18T23:34:59.446Z,100602.00
2018-10-18T23:37:28.745Z,100601.00
2018-10-18T23:39:58.077Z,100604.00
2018-10-18T23:42:27.369Z,100603.00
2018-10-18T23:44:56.738Z,100601.00
2018-10-18T23:47:26.017Z,100601.00
2018-10-18T23:49:55.379Z,100596.00
2018-10-18T23:52:24.756Z,100602.00
2018-10-18T23:54:54.121Z,100602.00
2018-10-18T23:57:23.563Z,100605.00
2018-10-18T23:59:52.856Z,100610.00
